Αναφορές Αεροδρομίων

 

KSJC - San Jose, California, USA
Distance from station: ΒΑ 14km
Ενημερώθηκε: 22/01/2021 17:22
Σχεδόν νεφελώδης
Σχεδόν νεφελώδης
 Ανεμος από Ν
Ανεμος: Ν 7 km/h
Θερμοκρασία: 9°C
Wind Chill: 8°C
Σημείο Δρόσου: 7°C
Υγρασία: 87%
Βαρόμετρο: 1014.6 hPa
Clouds: Σχεδόν νεφελώδης
Visibility: 16 km
Cloud details: Few Clouds 30 m
Μερικώς νεφελώδης 884 m
Σχεδόν νεφελώδης 1676 m
2021/01/22 15:22 KSJC 221522Z 18004KT 10SM FEW001 SCT029 BKN055 09/07 A2996 RMK AO2 T00890072
KNUQ - Moffett Nas/Mtn, California, USA
Distance from station: Β 14km
Ενημερώθηκε: 22/01/2021 17:15
Συννεφιά
Συννεφιά
 Ανεμος από Ν
Ανεμος: Ν 7 km/h
Θερμοκρασία: 9°C
Wind Chill: 8°C
Σημείο Δρόσου: 8°C
Υγρασία: 94%
Βαρόμετρο: 1014.6 hPa
Clouds: Συννεφιά
Visibility: 16 km
Cloud details: Συννεφιά 1981 m
2021/01/22 15:15 KNUQ 221515Z AUTO 19004KT 10SM OVC065 09/08 A2996 RMK AO2
 
KPAO - Palo Alto, California, USA
Distance from station: ΒΒΔ 23km
Ενημερώθηκε: 22/01/2021 16:47
Σχεδόν νεφελώδης
Σχεδόν νεφελώδης
 Ανεμος από varies
Ανεμος: varies 7 km/h
Θερμοκρασία: 8°C
Wind Chill: 7°C
Σημείο Δρόσου: 7°C
Υγρασία: 93%
Βαρόμετρο: 1014.6 hPa
Clouds: Σχεδόν νεφελώδης
Visibility: 16 km
Cloud details: Σχεδόν νεφελώδης 518 m
2021/01/22 14:47 KPAO 221447Z VRB04KT 10SM BKN017 08/07 A2996
KRHV - San Jose/Reid, California, USA
Distance from station: ΑΒΑ 19km
Ενημερώθηκε: 22/01/2021 16:55
Ασθενής βροχή, Showers, Συννεφιά
Ασθενής βροχή, Showers, Συννεφιά
 Ανεμος από ΑΒΑ
Ανεμος: ΑΒΑ 7 km/h
Θερμοκρασία: 8°C
Wind Chill: 7°C
Σημείο Δρόσου: 7°C
Υγρασία: 93%
Βαρόμετρο: 1014.9 hPa
Περίληψη: Ασθενής βροχή, Showers
Clouds: Συννεφιά
Visibility: 5 km
Cloud details: Συννεφιά 335 m
2021/01/22 14:55 KRHV 221455Z 06004KT 3SM -SHRA OVC011 08/07 A2997
 
KOAK - Oakland, California, USA
Distance from station: ΒΒΔ 50km
Ενημερώθηκε: 22/01/2021 17:08
Μερικώς νεφελώδης
Μερικώς νεφελώδης
 Ανεμος από Δ
Ανεμος: Δ 15 km/h
Θερμοκρασία: 11°C
Σημείο Δρόσου: 7°C
Υγρασία: 77%
Βαρόμετρο: 1014.2 hPa
Clouds: Μερικώς νεφελώδης
Visibility: 16 km
Cloud details: Few Clouds 244 m
Few Clouds 610 m
Μερικώς νεφελώδης 1219 m
2021/01/22 15:08 KOAK 221508Z 27008KT 10SM FEW008 FEW020 SCT040 11/07 A2995 RMK AO2 T01110067
KSQL - San Carlos Airpo, California, USA
Distance from station: ΒΔ 34km
Ενημερώθηκε: 22/01/2021 16:55
Μερικώς νεφελώδης
Μερικώς νεφελώδης
 Ανεμος από ΝΔ
Ανεμος: ΝΔ 7 km/h
Θερμοκρασία: 9°C
Wind Chill: 8°C
Σημείο Δρόσου: 7°C
Υγρασία: 87%
Βαρόμετρο: 1014.6 hPa
Clouds: Μερικώς νεφελώδης
Visibility: 16 km
Cloud details: Μερικώς νεφελώδης 945 m
2021/01/22 14:55 KSQL 221455Z AUTO 23004KT 10SM SCT031 09/07 A2996 RMK AO2
 
KSFO - San Francisco, California, USA
Distance from station: ΒΔ 49km
Ενημερώθηκε: 22/01/2021 16:56
Σχεδόν νεφελώδης
Σχεδόν νεφελώδης
 Ανεμος από ΔΝΔ
Ανεμος: ΔΝΔ 13 km/h
Θερμοκρασία: 11°C
Σημείο Δρόσου: 6°C
Υγρασία: 72%
Βαρόμετρο: 1013.9 hPa
Clouds: Σχεδόν νεφελώδης
Visibility: 16 km
Cloud details: Few Clouds 671 m
Σχεδόν νεφελώδης 1067 m
2021/01/22 14:56 KSFO 221456Z 25007KT 10SM FEW022 BKN035 11/06 A2994 RMK AO2 SLP138 60004 T01060056 52005
KE16 - San Martin, California, USA
Distance from station: ΑΝΑ 43km
Ενημερώθηκε: 22/01/2021 17:15
Ασθενής βροχή, Συννεφιά
Ασθενής βροχή, Συννεφιά
 Ανεμος από calm
Ανεμος: Απνοια
Θερμοκρασία: 8°C
Σημείο Δρόσου: 8°C
Υγρασία: 100%
Βαρόμετρο: 1015.2 hPa
Περίληψη: Ασθενής βροχή
Clouds: Συννεφιά
Visibility: 3 km
Cloud details: Συννεφιά 122 m
2021/01/22 15:15 KE16 221515Z AUTO 00000KT 2SM -RA OVC004 08/08 A2998 RMK AO2
 
KWVI - Watsonville, California, USA
Distance from station: ΝΝΑ 44km
Ενημερώθηκε: 22/01/2021 16:53
Ασθενής βροχή, Συννεφιά
Ασθενής βροχή, Συννεφιά
 Ανεμος από ΝΝΔ
Ανεμος: ΝΝΔ 9 km/h
Θερμοκρασία: 8°C
Wind Chill: 6°C
Σημείο Δρόσου: 8°C
Υγρασία: 100%
Βαρόμετρο: 1014.6 hPa
Περίληψη: Ασθενής βροχή
Clouds: Συννεφιά
Visibility: 11 km
Cloud details: Few Clouds 152 m
Μερικώς νεφελώδης 274 m
Συννεφιά 1006 m
2021/01/22 14:53 KWVI 221453Z AUTO 20005KT 7SM -RA FEW005 SCT009 OVC033 08/08 A2996 RMK AO2 SLP147 P0006 60008 T00830078 53003
KHAF - Half Moon Bay, California, USA
Distance from station: ΔΒΔ 50km
Ενημερώθηκε: 22/01/2021 17:15
Σχεδόν νεφελώδης
Σχεδόν νεφελώδης
 Ανεμος από ΒΔ
Ανεμος: ΒΔ 17 km/h
Θερμοκρασία: 10°C
Wind Chill: 8°C
Σημείο Δρόσου: 7°C
Υγρασία: 82%
Βαρόμετρο: 1014.2 hPa
Clouds: Σχεδόν νεφελώδης
Visibility: 11 km
Cloud details: Few Clouds 701 m
Μερικώς νεφελώδης 884 m
Σχεδόν νεφελώδης 1250 m
2021/01/22 15:15 KHAF 221515Z AUTO 32009KT 7SM FEW023 SCT029 BKN041 10/07 A2995 RMK AO2
 
KHWD - Hayward, California, USA
Distance from station: Β 44km
Ενημερώθηκε: 22/01/2021 16:54
Few Clouds
Few Clouds
 Ανεμος από Δ
Ανεμος: Δ 9 km/h
Θερμοκρασία: 9°C
Wind Chill: 7°C
Σημείο Δρόσου: 6°C
Υγρασία: 82%
Βαρόμετρο: 1013.9 hPa
Clouds: Few Clouds
Visibility: 16 km
Cloud details: Few Clouds 1341 m
2021/01/22 14:54 KHWD 221454Z 26005KT 10SM FEW044 09/06 A2994 RMK AO2 SLP146 60002 T00940056 51007
KLVK - Livermore, California, USA
Distance from station: ΒΒΑ 51km
Ενημερώθηκε: 22/01/2021 16:53
Σχεδόν νεφελώδης
Σχεδόν νεφελώδης
 Ανεμος από ΝΔ
Ανεμος: ΝΔ 15 km/h
Θερμοκρασία: 8°C
Wind Chill: 5°C
Σημείο Δρόσου: 7°C
Υγρασία: 93%
Βαρόμετρο: 1013.2 hPa
Clouds: Σχεδόν νεφελώδης
Visibility: 16 km
Cloud details: Few Clouds 1097 m
Μερικώς νεφελώδης 1524 m
Σχεδόν νεφελώδης 1981 m
2021/01/22 14:53 KLVK 221453Z AUTO 23008KT 10SM FEW036 SCT050 BKN065 08/07 A2992 RMK AO2 RAE18B26E36 SLP132 P0000 60000 T00830067 53006